Time;durP1;ratioP1;P1;durP2;ratioP2;P2;SDS_P1;SDS_P2;PMS_P1;PMS_P2;Temp;Humidity;BMP_temperature;BMP_pressure;BME280_temperature;BME280_humidity;BME280_pressure;Samples;Min_cycle;Max_cycle;Signal;HPM_P1;HPM_P2
2023/07/14 00:01:57;;;;;;;2.10;2.00;;;29.40;57.20;;;;;;5043249;28;20468;-67
2023/07/14 00:04:31;;;;;;;2.00;1.90;;;29.40;57.20;;;;;;5043047;28;20956;-65
2023/07/14 00:06:59;;;;;;;1.73;1.63;;;29.40;57.20;;;;;;5040082;28;20452;-66
2023/07/14 00:09:31;;;;;;;2.33;2.00;;;29.30;57.20;;;;;;5045703;28;20513;-66
2023/07/14 00:12:01;;;;;;;2.53;2.33;;;29.30;57.10;;;;;;5043312;28;20444;-65
2023/07/14 00:14:30;;;;;;;2.27;2.17;;;29.30;57.20;;;;;;5041219;28;20524;-65
2023/07/14 00:16:58;;;;;;;2.07;1.90;;;29.30;57.20;;;;;;5048912;28;20485;-65
2023/07/14 00:19:27;;;;;;;3.57;2.20;;;29.30;57.20;;;;;;5052178;28;20496;-68
2023/07/14 00:21:55;;;;;;;2.30;2.03;;;29.30;57.20;;;;;;5052181;28;20436;-70
2023/07/14 00:24:23;;;;;;;2.10;2.00;;;29.30;57.10;;;;;;5050906;28;20458;-65
2023/07/14 00:26:55;;;;;;;2.10;1.90;;;29.20;57.20;;;;;;5049547;28;20467;-68
2023/07/14 00:29:36;;;;;;;2.70;2.50;;;29.20;57.20;;;;;;5051464;28;20455;-68
2023/07/14 00:32:12;;;;;;;2.70;2.20;;;29.20;57.20;;;;;;5045739;28;20451;-69
2023/07/14 00:34:41;;;;;;;1.97;1.87;;;29.10;57.20;;;;;;5048058;28;20470;-67
2023/07/14 00:37:10;;;;;;;2.60;2.33;;;29.10;57.20;;;;;;5053221;28;20467;-67
2023/07/14 00:39:38;;;;;;;2.30;2.10;;;29.20;57.10;;;;;;5053612;28;20440;-66
2023/07/14 00:42:13;;;;;;;2.40;2.20;;;29.10;57.10;;;;;;5039762;28;21219;-65
2023/07/14 00:44:43;;;;;;;2.50;2.30;;;29.10;57.10;;;;;;5035203;28;20465;-65
2023/07/14 00:47:19;;;;;;;2.17;1.97;;;29.10;57.10;;;;;;5052544;28;20451;-65
2023/07/14 00:49:50;;;;;;;2.70;2.50;;;29.10;57.10;;;;;;5050946;28;20443;-64
2023/07/14 00:52:32;;;;;;;2.60;2.40;;;29.10;57.10;;;;;;5035235;28;20446;-65
2023/07/14 00:55:00;;;;;;;2.13;1.93;;;29.10;57.10;;;;;;5042011;28;20518;-68
2023/07/14 00:57:30;;;;;;;2.77;2.57;;;29.10;57.10;;;;;;5047431;28;21588;-67
2023/07/14 01:00:24;;;;;;;2.47;2.27;;;29.10;57.10;;;;;;5028205;28;21019;-69
2023/07/14 01:02:52;;;;;;;2.97;2.50;;;29.00;57.10;;;;;;5048044;28;20463;-65
2023/07/14 01:05:21;;;;;;;2.50;2.30;;;29.00;57.00;;;;;;5047219;28;20463;-68
2023/07/14 01:07:50;;;;;;;2.10;1.80;;;29.00;57.00;;;;;;5050551;28;20461;-66
2023/07/14 01:10:26;;;;;;;2.07;1.97;;;29.00;57.00;;;;;;5049445;28;20964;-73
2023/07/14 01:13:01;;;;;;;2.47;2.10;;;29.00;56.90;;;;;;5049839;28;20467;-66
2023/07/14 01:15:29;;;;;;;2.20;2.10;;;29.00;56.80;;;;;;5056526;28;20459;-67
2023/07/14 01:17:57;;;;;;;2.10;1.90;;;29.00;56.80;;;;;;5052664;28;20442;-65
2023/07/14 01:20:26;;;;;;;2.70;2.07;;;29.00;56.80;;;;;;5049343;28;20873;-66
2023/07/14 01:23:07;;;;;;;3.00;2.37;;;29.00;56.80;;;;;;5051958;28;20471;-65
2023/07/14 01:25:53;;;;;;;1.83;1.73;;;29.00;56.80;;;;;;5049976;28;21018;-66
2023/07/14 01:28:23;;;;;;;2.70;2.50;;;29.00;56.90;;;;;;5046342;28;20465;-64
2023/07/14 01:30:51;;;;;;;2.30;2.10;;;29.00;56.90;;;;;;5052856;28;20494;-65
2023/07/14 01:33:21;;;;;;;2.27;2.10;;;28.90;56.90;;;;;;5051128;28;20480;-65
2023/07/14 01:35:52;;;;;;;2.53;2.43;;;28.90;57.00;;;;;;5044649;28;20505;-68
2023/07/14 01:38:22;;;;;;;2.63;2.30;;;28.90;57.00;;;;;;5048984;28;20524;-65
2023/07/14 01:40:52;;;;;;;1.60;1.50;;;28.90;57.00;;;;;;5035356;28;20460;-64
2023/07/14 01:43:23;;;;;;;1.83;1.73;;;28.90;57.00;;;;;;5033450;28;20461;-64
2023/07/14 01:45:54;;;;;;;3.80;2.63;;;28.90;57.00;;;;;;5052190;28;20491;-65
2023/07/14 01:48:27;;;;;;;1.93;1.83;;;28.80;57.00;;;;;;5051926;28;20781;-64
2023/07/14 01:50:59;;;;;;;2.20;2.10;;;28.90;57.00;;;;;;5052074;28;21366;-65
2023/07/14 01:53:32;;;;;;;2.20;2.00;;;28.90;57.00;;;;;;5049598;28;20526;-66
2023/07/14 01:56:05;;;;;;;2.20;1.80;;;28.80;57.00;;;;;;5049407;28;20473;-66
2023/07/14 01:58:39;;;;;;;1.70;1.60;;;28.80;57.00;;;;;;5041029;28;20461;-65
2023/07/14 02:01:07;;;;;;;1.93;1.83;;;28.80;57.00;;;;;;5025110;28;20467;-65
2023/07/14 02:03:39;;;;;;;3.07;2.23;;;28.80;57.00;;;;;;5027398;28;20889;-65
2023/07/14 02:06:07;;;;;;;2.13;2.03;;;28.80;57.10;;;;;;5048132;28;20540;-68
2023/07/14 02:08:36;;;;;;;2.10;1.90;;;28.80;57.10;;;;;;5048466;28;20462;-68
2023/07/14 02:11:04;;;;;;;3.10;2.37;;;28.80;57.10;;;;;;5052330;28;20856;-65
2023/07/14 02:13:34;;;;;;;2.60;2.40;;;28.70;57.10;;;;;;5050828;28;20508;-66
2023/07/14 02:16:02;;;;;;;2.43;2.33;;;28.70;57.20;;;;;;5051918;28;20442;-67
2023/07/14 02:18:31;;;;;;;2.47;2.27;;;28.70;57.20;;;;;;5033792;28;20465;-65
2023/07/14 02:20:59;;;;;;;2.93;2.70;;;28.70;57.10;;;;;;5051347;28;20431;-65
2023/07/14 02:23:28;;;;;;;2.97;2.67;;;28.70;57.20;;;;;;5046712;28;20928;-65
2023/07/14 02:26:07;;;;;;;2.40;2.20;;;28.70;57.20;;;;;;5048066;28;20932;-67
2023/07/14 02:28:36;;;;;;;2.40;2.20;;;28.70;57.20;;;;;;5048505;28;20476;-65
2023/07/14 02:31:14;;;;;;;2.53;2.43;;;28.70;57.20;;;;;;5041060;28;20820;-65
2023/07/14 02:33:44;;;;;;;2.10;2.00;;;28.70;57.20;;;;;;5051657;28;20451;-64
2023/07/14 02:36:21;;;;;;;2.60;2.40;;;28.70;57.20;;;;;;5030492;28;20458;-65
2023/07/14 02:38:49;;;;;;;2.00;1.90;;;28.70;57.20;;;;;;5050570;28;20505;-65
2023/07/14 02:41:21;;;;;;;2.33;2.10;;;28.60;57.30;;;;;;5051675;28;20461;-65
2023/07/14 02:43:54;;;;;;;2.00;1.90;;;28.60;57.20;;;;;;5050609;28;20441;-65
2023/07/14 02:46:28;;;;;;;2.50;2.30;;;28.60;57.30;;;;;;5051424;28;20532;-65
2023/07/14 02:48:57;;;;;;;4.90;2.73;;;28.60;57.30;;;;;;5048018;28;20536;-66
2023/07/14 02:51:25;;;;;;;2.63;2.43;;;28.60;57.30;;;;;;5032166;28;20459;-72
2023/07/14 02:53:53;;;;;;;3.20;2.17;;;28.50;57.30;;;;;;5034700;28;20783;-65
2023/07/14 02:56:21;;;;;;;2.50;2.30;;;28.50;57.20;;;;;;5050981;28;20504;-65
2023/07/14 02:58:52;;;;;;;2.00;1.90;;;28.50;57.30;;;;;;5048672;28;20453;-65
2023/07/14 03:01:22;;;;;;;2.40;2.20;;;28.50;57.30;;;;;;5052082;28;20449;-64
2023/07/14 03:03:51;;;;;;;2.57;2.40;;;28.50;57.30;;;;;;5048407;28;20953;-67
2023/07/14 03:06:21;;;;;;;2.47;2.30;;;28.50;57.20;;;;;;5045391;28;20463;-66
2023/07/14 03:08:50;;;;;;;2.07;1.97;;;28.50;57.20;;;;;;5046770;28;20456;-66
2023/07/14 03:11:18;;;;;;;2.87;2.67;;;28.50;57.20;;;;;;5051165;28;20499;-65
2023/07/14 03:13:47;;;;;;;2.13;2.03;;;28.50;57.30;;;;;;5050054;28;20465;-65
2023/07/14 03:16:16;;;;;;;2.17;2.00;;;28.50;57.20;;;;;;5051148;28;21031;-65
2023/07/14 03:18:45;;;;;;;2.43;2.33;;;28.50;57.20;;;;;;5046755;28;20933;-65
2023/07/14 03:21:14;;;;;;;2.30;2.10;;;28.50;57.30;;;;;;5046994;28;20457;-65
2023/07/14 03:23:43;;;;;;;2.50;2.30;;;28.40;57.30;;;;;;5050430;28;20539;-67
2023/07/14 03:26:12;;;;;;;2.43;2.27;;;28.40;57.30;;;;;;5051317;28;20797;-65
2023/07/14 03:28:40;;;;;;;2.30;2.10;;;28.40;57.10;;;;;;5046885;28;20459;-66
2023/07/14 03:31:09;;;;;;;2.53;2.33;;;28.40;57.10;;;;;;5047161;28;20449;-66
2023/07/14 03:33:39;;;;;;;3.70;2.60;;;28.40;57.20;;;;;;5044614;28;20461;-66
2023/07/14 03:36:13;;;;;;;3.43;2.80;;;28.40;57.20;;;;;;5033308;28;20489;-66
2023/07/14 03:38:43;;;;;;;2.40;2.30;;;28.40;57.20;;;;;;5050350;28;20481;-65
2023/07/14 03:41:13;;;;;;;2.87;2.53;;;28.40;57.10;;;;;;5047019;28;20480;-65
2023/07/14 03:43:42;;;;;;;2.37;2.17;;;28.40;57.20;;;;;;5045878;28;20551;-67
2023/07/14 03:46:11;;;;;;;2.47;2.27;;;28.40;57.20;;;;;;5050613;28;20441;-67
2023/07/14 03:48:41;;;;;;;1.97;1.87;;;28.30;57.30;;;;;;5032478;28;20451;-67
2023/07/14 03:51:10;;;;;;;1.93;1.83;;;28.30;57.30;;;;;;5046397;28;20456;-66
2023/07/14 03:53:39;;;;;;;2.60;2.40;;;28.30;57.30;;;;;;5049815;28;20460;-66
2023/07/14 03:56:07;;;;;;;2.10;1.90;;;28.30;57.30;;;;;;5049314;28;20472;-67
2023/07/14 03:58:35;;;;;;;2.63;2.40;;;28.30;57.30;;;;;;5048496;28;20444;-66
2023/07/14 04:01:03;;;;;;;2.50;2.30;;;28.30;57.20;;;;;;5048908;28;20464;-65
2023/07/14 04:03:31;;;;;;;3.40;3.13;;;28.30;57.30;;;;;;5029195;28;20491;-65
2023/07/14 04:06:01;;;;;;;2.30;2.20;;;28.30;57.30;;;;;;5048994;28;20469;-67
2023/07/14 04:08:36;;;;;;;3.00;2.27;;;28.30;57.20;;;;;;5045020;28;20482;-65
2023/07/14 04:11:08;;;;;;;2.50;2.30;;;28.30;57.20;;;;;;5053517;28;20951;-65
2023/07/14 04:13:36;;;;;;;2.10;1.90;;;28.30;57.30;;;;;;5049436;28;20460;-64
2023/07/14 04:16:07;;;;;;;2.03;1.93;;;28.30;57.30;;;;;;5035064;28;20489;-64
2023/07/14 04:18:35;;;;;;;2.33;2.13;;;28.20;57.20;;;;;;5056341;28;21468;-64
2023/07/14 04:21:07;;;;;;;2.50;2.07;;;28.20;57.20;;;;;;5055936;28;20446;-65
2023/07/14 04:23:36;;;;;;;2.97;2.37;;;28.20;57.20;;;;;;5049845;28;20965;-65
2023/07/14 04:26:09;;;;;;;2.00;1.90;;;28.20;57.30;;;;;;5053189;28;20857;-65
2023/07/14 04:28:38;;;;;;;3.40;2.30;;;28.20;57.20;;;;;;5049366;28;20933;-65
2023/07/14 04:31:06;;;;;;;1.87;1.77;;;28.20;57.30;;;;;;5047352;28;20473;-64
2023/07/14 04:33:34;;;;;;;2.40;2.30;;;28.20;57.20;;;;;;5057126;28;20455;-65
2023/07/14 04:36:03;;;;;;;2.30;2.10;;;28.20;57.20;;;;;;5047440;28;20470;-69
2023/07/14 04:38:32;;;;;;;4.13;2.20;;;28.20;57.30;;;;;;5053262;28;20479;-65
2023/07/14 04:41:00;;;;;;;2.03;1.90;;;28.20;57.20;;;;;;5044447;28;20899;-64
2023/07/14 04:43:29;;;;;;;3.23;2.40;;;28.20;57.20;;;;;;5047882;28;21004;-64
2023/07/14 04:45:57;;;;;;;1.73;1.63;;;28.20;57.20;;;;;;5033995;28;20561;-66
2023/07/14 04:48:26;;;;;;;2.47;2.33;;;28.20;57.20;;;;;;5052784;28;20530;-65
2023/07/14 04:50:54;;;;;;;2.30;2.20;;;28.20;57.30;;;;;;5048858;28;20938;-64
2023/07/14 04:53:22;;;;;;;3.10;2.50;;;28.20;57.40;;;;;;5039844;28;20473;-65
2023/07/14 04:55:52;;;;;;;2.93;2.20;;;28.20;57.20;;;;;;5046404;28;20537;-67
2023/07/14 04:58:20;;;;;;;2.40;2.20;;;28.20;57.20;;;;;;5047005;28;20901;-64
2023/07/14 05:00:50;;;;;;;2.57;2.33;;;28.20;57.20;;;;;;5044570;28;20464;-64
2023/07/14 05:03:18;;;;;;;5.13;2.50;;;28.20;57.30;;;;;;5043761;28;20469;-65
2023/07/14 05:05:46;;;;;;;2.47;2.10;;;28.20;57.20;;;;;;5047241;28;20463;-70
2023/07/14 05:08:15;;;;;;;3.63;2.30;;;28.20;57.20;;;;;;5046450;28;20833;-64
2023/07/14 05:10:43;;;;;;;2.80;2.10;;;28.20;57.20;;;;;;5044894;28;20445;-65
2023/07/14 05:13:14;;;;;;;2.63;2.00;;;28.20;57.10;;;;;;5030499;28;20786;-64
2023/07/14 05:15:44;;;;;;;2.83;2.60;;;28.20;57.40;;;;;;5045343;28;20476;-64
2023/07/14 05:18:16;;;;;;;3.87;2.33;;;28.10;57.40;;;;;;5043315;28;20460;-64
2023/07/14 05:20:44;;;;;;;2.47;2.27;;;28.10;57.50;;;;;;5046816;28;20480;-64
2023/07/14 05:23:12;;;;;;;2.40;2.20;;;28.20;57.60;;;;;;5043385;28;20487;-65
2023/07/14 05:25:41;;;;;;;2.77;2.00;;;28.20;57.60;;;;;;5034233;28;20858;-64
2023/07/14 05:28:09;;;;;;;1.93;1.80;;;28.20;57.70;;;;;;5045748;28;20464;-65
2023/07/14 05:30:39;;;;;;;2.40;2.20;;;28.20;57.70;;;;;;5048664;28;20512;-64
2023/07/14 05:33:09;;;;;;;3.30;2.30;;;28.20;57.70;;;;;;5042909;28;20460;-65
2023/07/14 05:35:37;;;;;;;1.83;1.73;;;28.20;57.70;;;;;;5044181;28;20902;-65
2023/07/14 05:38:06;;;;;;;4.00;2.47;;;28.20;57.70;;;;;;5045890;28;20489;-64
2023/07/14 05:40:34;;;;;;;3.10;2.77;;;28.20;57.80;;;;;;5040775;28;20487;-65
2023/07/14 05:43:24;;;;;;;2.73;2.23;;;28.20;57.80;;;;;;5044363;28;21437;-67
2023/07/14 05:45:53;;;;;;;3.20;2.87;;;28.20;57.90;;;;;;5042498;28;21110;-64
2023/07/14 05:48:22;;;;;;;2.60;2.40;;;28.20;57.90;;;;;;5045393;28;20795;-67
2023/07/14 05:50:50;;;;;;;2.33;2.13;;;28.30;57.90;;;;;;5047615;28;20480;-64
2023/07/14 05:53:19;;;;;;;2.47;2.20;;;28.30;58.00;;;;;;5051894;28;20452;-64
2023/07/14 05:55:48;;;;;;;2.10;1.93;;;28.30;58.00;;;;;;5049042;28;20481;-65
2023/07/14 05:58:17;;;;;;;2.17;2.07;;;28.30;58.00;;;;;;5049927;28;20790;-67
2023/07/14 06:00:45;;;;;;;2.47;2.00;;;28.30;58.00;;;;;;5048578;28;20516;-64
2023/07/14 06:03:17;;;;;;;2.67;2.47;;;28.30;58.00;;;;;;5045021;28;20475;-64
2023/07/14 06:05:46;;;;;;;2.97;2.70;;;28.30;58.00;;;;;;5049642;28;20440;-64
2023/07/14 06:08:14;;;;;;;2.90;2.50;;;28.30;58.10;;;;;;5042904;28;20464;-63
2023/07/14 06:10:43;;;;;;;2.40;2.20;;;28.30;58.10;;;;;;5045088;28;20500;-65
2023/07/14 06:13:12;;;;;;;9.20;3.77;;;28.30;58.10;;;;;;5047507;28;20498;-64
2023/07/14 06:15:40;;;;;;;20.77;7.00;;;28.30;60.20;;;;;;5047401;28;20551;-65
2023/07/14 06:18:08;;;;;;;16.80;6.63;;;28.40;61.70;;;;;;5039106;28;20476;-69
2023/07/14 06:20:38;;;;;;;4.03;3.63;;;28.40;62.00;;;;;;5044274;28;20469;-67
2023/07/14 06:23:06;;;;;;;6.70;4.00;;;28.40;60.20;;;;;;5046468;28;20460;-69
2023/07/14 06:25:34;;;;;;;9.80;5.00;;;28.40;60.00;;;;;;5041867;28;20465;-67
2023/07/14 06:28:03;;;;;;;8.93;4.10;;;28.50;60.50;;;;;;5030227;28;20457;-66
2023/07/14 06:30:31;;;;;;;10.50;4.53;;;28.50;60.60;;;;;;5040943;28;20458;-65
2023/07/14 06:32:59;;;;;;;9.47;4.50;;;28.50;60.70;;;;;;5049481;28;20464;-67
2023/07/14 06:35:28;;;;;;;7.50;3.90;;;28.50;60.60;;;;;;5044530;28;20475;-68
2023/07/14 06:37:57;;;;;;;7.73;3.80;;;28.60;60.70;;;;;;5043218;28;20561;-66
2023/07/14 06:40:26;;;;;;;6.67;4.17;;;28.60;60.40;;;;;;5044173;28;20463;-67
2023/07/14 06:42:55;;;;;;;6.80;4.17;;;28.60;60.30;;;;;;5027655;28;21103;-68
2023/07/14 06:45:24;;;;;;;8.03;4.10;;;28.60;60.60;;;;;;5047924;28;20473;-68
2023/07/14 06:47:51;;;;;;;6.93;4.57;;;28.60;60.80;;;;;;5040127;28;20466;-68
2023/07/14 06:50:20;;;;;;;7.00;3.80;;;28.70;60.50;;;;;;5029153;28;20827;-66
2023/07/14 06:52:48;;;;;;;7.27;3.80;;;28.70;60.30;;;;;;5046741;28;20474;-66
2023/07/14 06:55:17;;;;;;;5.97;3.40;;;28.70;60.20;;;;;;5044905;28;20465;-69
2023/07/14 06:57:46;;;;;;;8.03;3.60;;;28.70;60.00;;;;;;5046819;28;20527;-69
2023/07/14 07:00:15;;;;;;;4.23;3.83;;;28.70;59.90;;;;;;5040642;28;20447;-70
2023/07/14 07:02:43;;;;;;;4.40;3.33;;;28.70;59.80;;;;;;5044983;28;20492;-67
2023/07/14 07:05:12;;;;;;;4.80;4.00;;;28.70;59.80;;;;;;5046756;28;20557;-65
2023/07/14 07:07:40;;;;;;;8.13;3.53;;;28.70;59.70;;;;;;5045693;28;20451;-69
2023/07/14 07:10:09;;;;;;;3.50;3.20;;;28.80;59.70;;;;;;5046235;28;20495;-67
2023/07/14 07:12:39;;;;;;;7.73;3.80;;;28.80;59.70;;;;;;5043283;28;20462;-67
2023/07/14 07:15:08;;;;;;;4.30;3.00;;;28.80;59.80;;;;;;5040695;28;20545;-67
2023/07/14 07:17:38;;;;;;;3.30;3.00;;;28.80;59.90;;;;;;5044438;28;21023;-67
2023/07/14 07:20:08;;;;;;;6.57;3.00;;;28.80;59.90;;;;;;5045392;28;20465;-69
2023/07/14 07:22:37;;;;;;;5.43;4.93;;;28.80;59.80;;;;;;5045539;28;20462;-65
2023/07/14 07:25:06;;;;;;;4.03;3.40;;;28.90;59.70;;;;;;5043389;28;20454;-69
2023/07/14 07:27:35;;;;;;;11.50;3.33;;;28.90;59.70;;;;;;5043164;28;20462;-67
2023/07/14 07:30:06;;;;;;;7.03;2.90;;;28.90;59.60;;;;;;5046311;28;20878;-66
2023/07/14 07:32:34;;;;;;;4.40;3.27;;;28.90;59.60;;;;;;5049628;28;20446;-67
2023/07/14 07:35:03;;;;;;;4.27;2.80;;;28.90;59.60;;;;;;5050939;28;20451;-72
2023/07/14 07:37:32;;;;;;;3.80;3.47;;;28.90;59.60;;;;;;5048644;28;20499;-65
2023/07/14 07:40:02;;;;;;;4.83;3.33;;;29.00;59.60;;;;;;5049797;28;20461;-66
2023/07/14 07:42:31;;;;;;;6.40;3.33;;;29.00;59.60;;;;;;5049668;28;20454;-65
2023/07/14 07:44:59;;;;;;;3.10;2.80;;;29.00;59.60;;;;;;5049423;28;20543;-66
2023/07/14 07:47:29;;;;;;;2.80;2.50;;;29.00;59.50;;;;;;5045257;28;20469;-67
2023/07/14 07:49:57;;;;;;;7.77;3.67;;;29.00;59.50;;;;;;5053431;28;20537;-69
2023/07/14 07:52:25;;;;;;;3.33;3.03;;;29.00;59.50;;;;;;5049470;28;21861;-65
2023/07/14 07:54:54;;;;;;;3.90;2.60;;;29.10;59.40;;;;;;5052839;28;20499;-65
2023/07/14 07:57:22;;;;;;;4.30;2.77;;;29.00;59.40;;;;;;5050190;28;20564;-67
2023/07/14 07:59:50;;;;;;;5.10;3.30;;;29.10;59.40;;;;;;5051377;28;20466;-64
2023/07/14 08:02:18;;;;;;;3.20;2.77;;;29.10;59.30;;;;;;5048786;28;20461;-66
2023/07/14 08:04:49;;;;;;;3.77;2.73;;;29.10;59.20;;;;;;5048386;28;20982;-68
2023/07/14 08:07:17;;;;;;;2.67;2.47;;;29.10;59.20;;;;;;5044850;28;20457;-69
2023/07/14 08:09:46;;;;;;;3.40;3.10;;;29.10;59.20;;;;;;5048791;28;20457;-65
2023/07/14 08:12:14;;;;;;;5.43;3.20;;;29.10;59.10;;;;;;5044870;28;20526;-65
2023/07/14 08:14:52;;;;;;;3.50;2.50;;;29.10;59.20;;;;;;5047414;28;20465;-66
2023/07/14 08:17:24;;;;;;;3.53;3.23;;;29.10;59.20;;;;;;5048865;28;20492;-65
2023/07/14 08:19:54;;;;;;;5.80;2.60;;;29.10;59.20;;;;;;5049588;28;20461;-67
2023/07/14 08:22:23;;;;;;;7.20;3.17;;;29.10;59.20;;;;;;5050147;28;20465;-71
2023/07/14 08:24:51;;;;;;;3.50;2.47;;;29.10;59.20;;;;;;5050187;28;20462;-66
2023/07/14 08:27:20;;;;;;;4.30;2.83;;;29.10;59.10;;;;;;5050346;28;20457;-65
2023/07/14 08:29:48;;;;;;;2.73;2.53;;;29.10;59.00;;;;;;5043215;28;20468;-65
2023/07/14 08:32:16;;;;;;;2.90;2.70;;;29.20;58.90;;;;;;5048595;28;20552;-68
2023/07/14 08:34:45;;;;;;;3.27;2.77;;;29.20;59.00;;;;;;5043417;28;20487;-66
2023/07/14 08:37:15;;;;;;;4.40;2.73;;;29.20;58.80;;;;;;5050384;28;20468;-71
2023/07/14 08:39:43;;;;;;;4.13;3.10;;;29.20;58.80;;;;;;5051634;28;20467;-73
2023/07/14 08:42:27;;;;;;;2.93;2.47;;;29.20;58.80;;;;;;5051415;28;20493;-69
2023/07/14 08:45:07;;;;;;;2.57;2.37;;;29.20;58.70;;;;;;5052145;28;20457;-69
2023/07/14 08:47:46;;;;;;;3.30;2.40;;;29.20;58.60;;;;;;5051422;28;20500;-70
2023/07/14 08:50:21;;;;;;;2.50;2.30;;;29.20;58.50;;;;;;5060681;28;20446;-69
2023/07/14 08:53:01;;;;;;;4.07;2.63;;;29.20;58.40;;;;;;5032290;28;20453;-71
2023/07/14 08:55:31;;;;;;;2.40;2.30;;;29.20;58.30;;;;;;5049894;28;20812;-69
2023/07/14 08:58:04;;;;;;;3.30;2.30;;;29.20;58.30;;;;;;5048372;28;21142;-72
2023/07/14 09:00:39;;;;;;;3.10;2.37;;;29.20;58.30;;;;;;5050756;28;20454;-70
2023/07/14 09:03:12;;;;;;;2.60;2.40;;;29.20;58.30;;;;;;5050104;28;20503;-73
2023/07/14 09:05:48;;;;;;;2.70;2.50;;;29.20;58.30;;;;;;5050420;28;20465;-71
2023/07/14 09:08:17;;;;;;;2.37;2.17;;;29.20;58.30;;;;;;5047921;28;20511;-69
2023/07/14 09:10:58;;;;;;;2.70;2.50;;;29.20;58.20;;;;;;5030466;28;20518;-69
2023/07/14 09:13:42;;;;;;;2.77;2.57;;;29.30;58.20;;;;;;5051220;28;20532;-72
2023/07/14 09:16:12;;;;;;;2.90;2.80;;;29.30;58.10;;;;;;5052195;28;20458;-70
2023/07/14 09:19:00;;;;;;;4.87;2.87;;;29.30;58.10;;;;;;5051670;28;20509;-69
2023/07/14 09:21:32;;;;;;;3.40;3.07;;;29.30;58.00;;;;;;5053260;28;20517;-69
2023/07/14 09:24:15;;;;;;;2.90;2.50;;;29.30;57.90;;;;;;5050278;28;20492;-69
2023/07/14 09:26:45;;;;;;;4.00;2.30;;;29.30;57.90;;;;;;5046445;28;20446;-69
2023/07/14 09:29:17;;;;;;;3.13;2.83;;;29.30;57.80;;;;;;5048546;28;20459;-69
2023/07/14 09:31:51;;;;;;;3.43;2.90;;;29.30;57.80;;;;;;5032755;28;20808;-69
2023/07/14 09:34:26;;;;;;;2.80;2.60;;;29.30;57.80;;;;;;5046677;28;20471;-72
2023/07/14 09:36:56;;;;;;;2.83;2.40;;;29.40;57.80;;;;;;5045693;28;20464;-76
2023/07/14 09:39:32;;;;;;;5.00;3.10;;;29.40;57.80;;;;;;5051468;28;20486;-69
2023/07/14 09:42:03;;;;;;;4.20;2.90;;;29.30;58.10;;;;;;5046343;28;20831;-73
2023/07/14 09:44:32;;;;;;;2.43;2.00;;;29.40;58.30;;;;;;5049720;28;20524;-74
2023/07/14 09:47:02;;;;;;;3.10;2.90;;;29.40;58.30;;;;;;5035940;28;20793;-74
2023/07/14 09:49:37;;;;;;;2.10;1.90;;;29.40;58.30;;;;;;5046297;28;20465;-75
2023/07/14 09:52:14;;;;;;;2.43;2.10;;;29.40;58.30;;;;;;5046246;28;20936;-70
2023/07/14 09:54:52;;;;;;;3.43;2.90;;;29.40;58.30;;;;;;5045188;28;20462;-69
2023/07/14 09:57:24;;;;;;;3.17;2.60;;;29.40;58.30;;;;;;5048644;28;20516;-70
2023/07/14 10:00:16;;;;;;;2.70;2.50;;;29.40;58.30;;;;;;5046231;28;20477;-73
2023/07/14 10:02:49;;;;;;;2.67;2.47;;;29.40;58.30;;;;;;5048278;28;20469;-70
2023/07/14 10:05:34;;;;;;;2.80;2.60;;;29.40;58.30;;;;;;5044846;28;20490;-72
2023/07/14 10:08:05;;;;;;;2.90;2.50;;;29.50;58.20;;;;;;5042366;28;20457;-74
2023/07/14 10:10:42;;;;;;;2.40;2.30;;;29.50;58.20;;;;;;5046392;28;20529;-71
2023/07/14 10:13:18;;;;;;;2.80;2.17;;;29.50;58.20;;;;;;5042186;28;20458;-70
2023/07/14 10:15:54;;;;;;;2.60;2.40;;;29.50;58.10;;;;;;5049464;28;20560;-73
2023/07/14 10:18:23;;;;;;;3.53;2.93;;;29.50;58.10;;;;;;5047585;28;20481;-71
2023/07/14 10:21:05;;;;;;;3.10;2.67;;;29.60;58.00;;;;;;5046771;28;20471;-69
2023/07/14 10:23:35;;;;;;;3.40;3.10;;;29.60;58.00;;;;;;5045885;28;20527;-69
2023/07/14 10:26:07;;;;;;;2.27;2.07;;;29.60;57.90;;;;;;5047919;28;20499;-69
2023/07/14 10:28:37;;;;;;;2.60;2.40;;;29.60;57.90;;;;;;5046363;28;20463;-70
2023/07/14 10:31:20;;;;;;;3.50;3.20;;;29.60;57.90;;;;;;5048345;28;20449;-69
2023/07/14 10:33:59;;;;;;;3.50;3.20;;;29.60;57.80;;;;;;5044738;28;24021;-69
2023/07/14 10:36:32;;;;;;;2.30;2.10;;;29.70;57.70;;;;;;5045667;28;20453;-75
2023/07/14 10:39:06;;;;;;;2.70;2.50;;;29.70;57.60;;;;;;5045275;28;20495;-70
2023/07/14 10:41:39;;;;;;;3.30;2.30;;;29.70;57.50;;;;;;5043958;28;20493;-69
2023/07/14 10:44:16;;;;;;;4.00;2.67;;;29.70;57.50;;;;;;5045153;28;20458;-69
2023/07/14 10:46:48;;;;;;;2.53;2.43;;;29.70;57.50;;;;;;5046375;28;20461;-69
2023/07/14 10:49:24;;;;;;;2.50;2.33;;;29.70;57.40;;;;;;5045316;28;20467;-70
2023/07/14 10:51:57;;;;;;;4.90;2.47;;;29.80;57.40;;;;;;5050445;28;20512;-73
2023/07/14 10:54:43;;;;;;;2.50;2.40;;;29.80;57.40;;;;;;5028319;28;20466;-69
2023/07/14 10:57:33;;;;;;;2.70;2.60;;;29.80;57.40;;;;;;5040481;28;20455;-71
2023/07/14 11:00:14;;;;;;;3.40;2.23;;;29.80;57.40;;;;;;5041659;28;20486;-66
2023/07/14 11:02:51;;;;;;;7.37;2.30;;;29.80;57.40;;;;;;5041213;28;20539;-66
2023/07/14 11:05:24;;;;;;;2.53;2.33;;;29.80;57.30;;;;;;5041538;28;20465;-65
2023/07/14 11:07:53;;;;;;;4.03;3.10;;;29.80;57.20;;;;;;5045479;28;20885;-67
2023/07/14 11:10:32;;;;;;;2.33;2.20;;;29.80;57.20;;;;;;5044684;28;20465;-65
2023/07/14 11:13:14;;;;;;;2.80;2.60;;;29.90;57.10;;;;;;5043112;28;20462;-65
2023/07/14 11:15:46;;;;;;;4.53;2.80;;;29.90;57.20;;;;;;5039119;28;20470;-65
2023/07/14 11:18:28;;;;;;;3.00;2.50;;;29.90;57.00;;;;;;5042871;28;20965;-66
2023/07/14 11:21:16;;;;;;;5.10;2.50;;;29.90;57.00;;;;;;5045236;28;20461;-65
2023/07/14 11:23:52;;;;;;;2.57;2.40;;;29.90;57.00;;;;;;5044795;28;20457;-68
2023/07/14 11:26:27;;;;;;;2.63;2.50;;;29.90;57.00;;;;;;5048260;28;20477;-65
2023/07/14 11:29:09;;;;;;;2.20;2.10;;;29.90;57.00;;;;;;5040294;28;20454;-66
2023/07/14 11:31:45;;;;;;;2.00;1.90;;;29.90;57.10;;;;;;5041708;28;20456;-69
2023/07/14 11:34:25;;;;;;;2.30;2.20;;;29.90;57.20;;;;;;5046738;28;20456;-66
2023/07/14 11:37:17;;;;;;;2.33;2.20;;;29.90;57.20;;;;;;5044314;28;20465;-66
2023/07/14 11:39:52;;;;;;;5.17;2.07;;;29.90;57.20;;;;;;5028543;28;20497;-66
2023/07/14 11:42:24;;;;;;;2.43;2.23;;;29.90;57.10;;;;;;5026179;28;20467;-70
2023/07/14 11:44:56;;;;;;;2.53;2.37;;;29.90;57.10;;;;;;5024970;28;21005;-65
2023/07/14 11:47:35;;;;;;;4.00;2.30;;;29.90;57.10;;;;;;5025525;28;20506;-70
2023/07/14 11:50:23;;;;;;;2.90;2.60;;;29.90;57.10;;;;;;5025028;28;20456;-65
2023/07/14 11:53:18;;;;;;;3.37;2.80;;;29.90;57.10;;;;;;5027918;28;20463;-65
2023/07/14 11:55:49;;;;;;;2.77;2.30;;;29.90;57.10;;;;;;5006911;28;20755;-65
2023/07/14 11:58:26;;;;;;;2.73;2.53;;;29.90;57.20;;;;;;5028292;28;20532;-65
2023/07/14 12:00:59;;;;;;;2.40;2.30;;;29.90;57.10;;;;;;5019068;28;20535;-65
2023/07/14 12:03:35;;;;;;;2.30;1.80;;;29.90;57.00;;;;;;5032317;28;20490;-66
2023/07/14 12:06:43;;;;;;;3.20;3.00;;;29.90;56.80;;;;;;5029064;28;20832;-65
2023/07/14 12:09:16;;;;;;;2.30;2.10;;;29.90;56.70;;;;;;5018680;28;20476;-65
2023/07/14 12:11:51;;;;;;;2.63;2.53;;;29.90;56.80;;;;;;5041904;28;20499;-66
2023/07/14 12:14:32;;;;;;;6.97;2.43;;;29.90;56.60;;;;;;5034803;28;20466;-66
2023/07/14 12:17:04;;;;;;;1.97;1.87;;;29.90;56.60;;;;;;5027350;28;20458;-66
2023/07/14 12:19:53;;;;;;;3.20;2.53;;;30.00;56.60;;;;;;5039037;28;20517;-68
2023/07/14 12:22:38;;;;;;;1.80;1.70;;;30.00;56.60;;;;;;5025937;28;20463;-68
2023/07/14 12:25:11;;;;;;;2.10;1.97;;;30.10;56.30;;;;;;5039760;28;21040;-68
2023/07/14 12:27:44;;;;;;;2.10;2.00;;;30.10;56.00;;;;;;5033789;28;20959;-65
2023/07/14 12:30:20;;;;;;;2.60;2.40;;;30.10;56.00;;;;;;5039235;28;20461;-66
2023/07/14 12:32:54;;;;;;;2.73;2.63;;;30.10;56.00;;;;;;5021829;28;20465;-68
2023/07/14 12:35:26;;;;;;;3.73;2.90;;;30.10;56.20;;;;;;5030866;28;20474;-74
2023/07/14 12:37:54;;;;;;;4.40;2.17;;;30.00;56.40;;;;;;5050743;28;20512;-65
2023/07/14 12:40:25;;;;;;;3.83;2.20;;;30.00;56.50;;;;;;5053590;28;20579;-66
2023/07/14 12:42:57;;;;;;;2.83;2.63;;;30.00;56.40;;;;;;5054249;28;20465;-66
2023/07/14 12:45:25;;;;;;;3.23;2.43;;;29.90;56.20;;;;;;5054620;28;20458;-67
2023/07/14 12:48:04;;;;;;;2.73;2.53;;;29.90;56.20;;;;;;5057951;28;20862;-66
2023/07/14 12:50:33;;;;;;;3.70;2.60;;;29.80;56.20;;;;;;5050036;28;20463;-68
2023/07/14 12:53:02;;;;;;;2.67;2.43;;;29.80;56.30;;;;;;5053269;28;20458;-71
2023/07/14 12:55:32;;;;;;;2.13;2.03;;;29.90;56.20;;;;;;5059416;28;20539;-67
2023/07/14 12:58:07;;;;;;;2.50;2.30;;;29.90;56.10;;;;;;5051405;28;20467;-68
2023/07/14 13:00:37;;;;;;;3.27;3.00;;;29.90;56.10;;;;;;5049983;28;21008;-68
2023/07/14 13:03:11;;;;;;;3.93;2.50;;;29.90;56.00;;;;;;5029923;28;21041;-66
2023/07/14 13:05:41;;;;;;;2.40;2.30;;;29.90;55.90;;;;;;5046797;28;20474;-68
2023/07/14 13:08:18;;;;;;;3.30;2.83;;;29.90;55.90;;;;;;5045937;28;20456;-66
2023/07/14 13:10:49;;;;;;;6.20;2.90;;;29.90;55.80;;;;;;5044782;28;20552;-67